sensor_id;sensor_type;location;lat;lon;timestamp;temperature;humidity
67901;DHT22;54700;51.796;10.956;2023-10-31T00:02:20;10.90;99.90
67901;DHT22;54700;51.796;10.956;2023-10-31T00:04:48;10.80;99.90
67901;DHT22;54700;51.796;10.956;2023-10-31T00:07:15;10.80;99.90
67901;DHT22;54700;51.796;10.956;2023-10-31T00:09:41;10.80;99.90
67901;DHT22;54700;51.796;10.956;2023-10-31T00:12:08;10.90;99.90
67901;DHT22;54700;51.796;10.956;2023-10-31T00:14:35;10.90;99.90
67901;DHT22;54700;51.796;10.956;2023-10-31T00:17:02;10.90;99.90
67901;DHT22;54700;51.796;10.956;2023-10-31T00:19:29;11.00;99.90
67901;DHT22;54700;51.796;10.956;2023-10-31T00:21:57;11.00;99.90
67901;DHT22;54700;51.796;10.956;2023-10-31T00:24:24;11.00;99.90
67901;DHT22;54700;51.796;10.956;2023-10-31T00:26:51;11.10;99.90
67901;DHT22;54700;51.796;10.956;2023-10-31T00:29:18;11.10;99.90
67901;DHT22;54700;51.796;10.956;2023-10-31T00:31:45;11.10;99.90
67901;DHT22;54700;51.796;10.956;2023-10-31T00:34:12;11.10;99.90
67901;DHT22;54700;51.796;10.956;2023-10-31T00:36:39;11.20;99.90
67901;DHT22;54700;51.796;10.956;2023-10-31T00:39:07;11.20;99.90
67901;DHT22;54700;51.796;10.956;2023-10-31T00:41:34;11.30;99.90
67901;DHT22;54700;51.796;10.956;2023-10-31T00:44:00;11.30;99.90
67901;DHT22;54700;51.796;10.956;2023-10-31T00:46:27;11.30;99.90
67901;DHT22;54700;51.796;10.956;2023-10-31T00:48:54;11.40;99.90
67901;DHT22;54700;51.796;10.956;2023-10-31T00:51:21;11.40;99.90
67901;DHT22;54700;51.796;10.956;2023-10-31T00:53:48;11.40;99.90
67901;DHT22;54700;51.796;10.956;2023-10-31T00:56:16;11.40;99.90
67901;DHT22;54700;51.796;10.956;2023-10-31T00:58:43;11.40;99.90
67901;DHT22;54700;51.796;10.956;2023-10-31T01:01:10;11.50;99.90
67901;DHT22;54700;51.796;10.956;2023-10-31T01:03:37;11.40;99.90
67901;DHT22;54700;51.796;10.956;2023-10-31T01:06:04;11.50;99.90
67901;DHT22;54700;51.796;10.956;2023-10-31T01:08:30;11.50;99.90
67901;DHT22;54700;51.796;10.956;2023-10-31T01:10:57;11.50;99.90
67901;DHT22;54700;51.796;10.956;2023-10-31T01:13:26;11.50;99.90
67901;DHT22;54700;51.796;10.956;2023-10-31T01:15:53;11.50;99.90
67901;DHT22;54700;51.796;10.956;2023-10-31T01:18:20;11.50;99.90
67901;DHT22;54700;51.796;10.956;2023-10-31T01:20:46;11.50;99.90
67901;DHT22;54700;51.796;10.956;2023-10-31T01:23:13;11.50;99.90
67901;DHT22;54700;51.796;10.956;2023-10-31T01:25:40;11.50;99.90
67901;DHT22;54700;51.796;10.956;2023-10-31T01:28:07;11.50;99.90
67901;DHT22;54700;51.796;10.956;2023-10-31T01:30:35;11.50;99.90
67901;DHT22;54700;51.796;10.956;2023-10-31T01:33:02;11.50;99.90
67901;DHT22;54700;51.796;10.956;2023-10-31T01:35:30;11.50;99.90
67901;DHT22;54700;51.796;10.956;2023-10-31T01:37:57;11.50;99.90
67901;DHT22;54700;51.796;10.956;2023-10-31T01:40:23;11.50;99.90
67901;DHT22;54700;51.796;10.956;2023-10-31T01:42:50;11.50;99.90
67901;DHT22;54700;51.796;10.956;2023-10-31T01:45:17;11.40;99.90
67901;DHT22;54700;51.796;10.956;2023-10-31T01:47:46;11.40;99.90
67901;DHT22;54700;51.796;10.956;2023-10-31T01:50:16;11.40;99.90
67901;DHT22;54700;51.796;10.956;2023-10-31T01:52:44;11.40;99.90
67901;DHT22;54700;51.796;10.956;2023-10-31T01:55:11;11.40;99.90
67901;DHT22;54700;51.796;10.956;2023-10-31T01:57:39;11.40;99.90
67901;DHT22;54700;51.796;10.956;2023-10-31T02:00:07;11.40;99.90
67901;DHT22;54700;51.796;10.956;2023-10-31T02:02:35;11.40;99.90
67901;DHT22;54700;51.796;10.956;2023-10-31T02:05:08;11.40;99.90
67901;DHT22;54700;51.796;10.956;2023-10-31T02:07:35;11.40;99.90
67901;DHT22;54700;51.796;10.956;2023-10-31T02:10:02;11.40;99.90
67901;DHT22;54700;51.796;10.956;2023-10-31T02:12:33;11.40;99.90
67901;DHT22;54700;51.796;10.956;2023-10-31T02:15:00;11.40;99.90
67901;DHT22;54700;51.796;10.956;2023-10-31T02:17:28;11.40;99.90
67901;DHT22;54700;51.796;10.956;2023-10-31T02:19:55;11.40;99.90
67901;DHT22;54700;51.796;10.956;2023-10-31T02:22:24;11.40;99.90
67901;DHT22;54700;51.796;10.956;2023-10-31T02:24:51;11.40;99.90
67901;DHT22;54700;51.796;10.956;2023-10-31T02:27:17;11.40;99.90
67901;DHT22;54700;51.796;10.956;2023-10-31T02:29:44;11.40;99.90
67901;DHT22;54700;51.796;10.956;2023-10-31T02:32:11;11.40;99.90
67901;DHT22;54700;51.796;10.956;2023-10-31T02:34:38;11.40;99.90
67901;DHT22;54700;51.796;10.956;2023-10-31T02:37:05;11.40;99.90
67901;DHT22;54700;51.796;10.956;2023-10-31T02:39:37;11.30;99.90
67901;DHT22;54700;51.796;10.956;2023-10-31T02:42:04;11.30;99.90
67901;DHT22;54700;51.796;10.956;2023-10-31T02:44:31;11.30;99.90
67901;DHT22;54700;51.796;10.956;2023-10-31T02:46:58;11.30;99.90
67901;DHT22;54700;51.796;10.956;2023-10-31T02:49:25;11.30;99.90
67901;DHT22;54700;51.796;10.956;2023-10-31T02:51:52;11.30;99.90
67901;DHT22;54700;51.796;10.956;2023-10-31T02:54:19;11.30;99.90
67901;DHT22;54700;51.796;10.956;2023-10-31T02:56:47;11.30;99.90
67901;DHT22;54700;51.796;10.956;2023-10-31T02:59:14;11.30;99.90
67901;DHT22;54700;51.796;10.956;2023-10-31T03:01:41;11.30;99.90
67901;DHT22;54700;51.796;10.956;2023-10-31T03:04:08;11.30;99.90
67901;DHT22;54700;51.796;10.956;2023-10-31T03:06:34;11.40;99.90
67901;DHT22;54700;51.796;10.956;2023-10-31T03:09:01;11.40;99.90
67901;DHT22;54700;51.796;10.956;2023-10-31T03:11:29;11.40;99.90
67901;DHT22;54700;51.796;10.956;2023-10-31T03:13:57;11.50;99.90
67901;DHT22;54700;51.796;10.956;2023-10-31T03:16:24;11.50;99.90
67901;DHT22;54700;51.796;10.956;2023-10-31T03:18:51;11.50;99.90
67901;DHT22;54700;51.796;10.956;2023-10-31T03:21:18;11.60;99.90
67901;DHT22;54700;51.796;10.956;2023-10-31T03:23:46;11.60;99.90
67901;DHT22;54700;51.796;10.956;2023-10-31T03:26:15;11.60;99.90
67901;DHT22;54700;51.796;10.956;2023-10-31T03:28:42;11.60;99.90
67901;DHT22;54700;51.796;10.956;2023-10-31T03:31:10;11.60;99.90
67901;DHT22;54700;51.796;10.956;2023-10-31T03:33:38;11.60;99.90
67901;DHT22;54700;51.796;10.956;2023-10-31T03:36:05;11.70;99.90
67901;DHT22;54700;51.796;10.956;2023-10-31T03:38:33;11.60;99.90
67901;DHT22;54700;51.796;10.956;2023-10-31T03:41:00;11.70;99.90
67901;DHT22;54700;51.796;10.956;2023-10-31T03:43:27;11.70;99.90
67901;DHT22;54700;51.796;10.956;2023-10-31T03:45:54;11.70;99.90
67901;DHT22;54700;51.796;10.956;2023-10-31T03:48:23;11.70;99.90
67901;DHT22;54700;51.796;10.956;2023-10-31T03:50:50;11.70;99.90
67901;DHT22;54700;51.796;10.956;2023-10-31T03:53:16;11.70;99.90
67901;DHT22;54700;51.796;10.956;2023-10-31T03:55:43;11.70;99.90
67901;DHT22;54700;51.796;10.956;2023-10-31T03:58:10;11.70;99.90
67901;DHT22;54700;51.796;10.956;2023-10-31T04:00:38;11.70;99.90
67901;DHT22;54700;51.796;10.956;2023-10-31T04:03:05;11.70;99.90
67901;DHT22;54700;51.796;10.956;2023-10-31T04:05:34;11.70;99.90
67901;DHT22;54700;51.796;10.956;2023-10-31T04:08:04;11.80;99.90
67901;DHT22;54700;51.796;10.956;2023-10-31T04:10:30;11.80;99.90
67901;DHT22;54700;51.796;10.956;2023-10-31T04:12:57;11.80;99.90
67901;DHT22;54700;51.796;10.956;2023-10-31T04:15:24;11.80;99.90
67901;DHT22;54700;51.796;10.956;2023-10-31T04:17:51;11.80;99.90
67901;DHT22;54700;51.796;10.956;2023-10-31T04:20:18;11.80;99.90
67901;DHT22;54700;51.796;10.956;2023-10-31T04:22:46;11.80;99.90
67901;DHT22;54700;51.796;10.956;2023-10-31T04:25:13;11.90;99.90
67901;DHT22;54700;51.796;10.956;2023-10-31T04:27:40;11.90;99.90
67901;DHT22;54700;51.796;10.956;2023-10-31T04:30:07;11.80;99.90
67901;DHT22;54700;51.796;10.956;2023-10-31T04:32:35;11.90;99.90
67901;DHT22;54700;51.796;10.956;2023-10-31T04:35:01;11.90;99.90
67901;DHT22;54700;51.796;10.956;2023-10-31T04:37:28;11.90;99.90
67901;DHT22;54700;51.796;10.956;2023-10-31T04:39:57;12.00;99.90
67901;DHT22;54700;51.796;10.956;2023-10-31T04:42:24;12.00;99.90
67901;DHT22;54700;51.796;10.956;2023-10-31T04:44:51;11.90;99.90
67901;DHT22;54700;51.796;10.956;2023-10-31T04:47:18;11.90;99.90
67901;DHT22;54700;51.796;10.956;2023-10-31T04:49:45;11.80;99.90
67901;DHT22;54700;51.796;10.956;2023-10-31T04:52:12;11.70;99.90
67901;DHT22;54700;51.796;10.956;2023-10-31T04:54:39;11.70;99.90
67901;DHT22;54700;51.796;10.956;2023-10-31T04:57:07;11.60;99.90
67901;DHT22;54700;51.796;10.956;2023-10-31T04:59:35;11.50;99.90
67901;DHT22;54700;51.796;10.956;2023-10-31T05:02:02;11.40;99.90
67901;DHT22;54700;51.796;10.956;2023-10-31T05:04:29;11.40;99.90
67901;DHT22;54700;51.796;10.956;2023-10-31T05:06:56;11.30;99.90
67901;DHT22;54700;51.796;10.956;2023-10-31T05:09:24;11.20;99.90
67901;DHT22;54700;51.796;10.956;2023-10-31T05:11:51;11.20;99.90
67901;DHT22;54700;51.796;10.956;2023-10-31T05:14:20;11.10;99.90
67901;DHT22;54700;51.796;10.956;2023-10-31T05:16:46;11.10;99.90
67901;DHT22;54700;51.796;10.956;2023-10-31T05:19:13;11.00;99.90
67901;DHT22;54700;51.796;10.956;2023-10-31T05:21:41;11.00;99.50
67901;DHT22;54700;51.796;10.956;2023-10-31T05:24:08;11.00;98.50
67901;DHT22;54700;51.796;10.956;2023-10-31T05:26:35;10.90;98.40
67901;DHT22;54700;51.796;10.956;2023-10-31T05:29:02;10.90;97.70
67901;DHT22;54700;51.796;10.956;2023-10-31T05:31:30;10.80;97.10
67901;DHT22;54700;51.796;10.956;2023-10-31T05:33:57;10.80;97.80
67901;DHT22;54700;51.796;10.956;2023-10-31T05:36:24;10.70;96.80
67901;DHT22;54700;51.796;10.956;2023-10-31T05:38:53;10.70;97.40
67901;DHT22;54700;51.796;10.956;2023-10-31T05:41:20;10.70;97.70
67901;DHT22;54700;51.796;10.956;2023-10-31T05:43:47;10.60;97.10
67901;DHT22;54700;51.796;10.956;2023-10-31T05:46:14;10.60;97.00
67901;DHT22;54700;51.796;10.956;2023-10-31T05:48:42;10.70;95.70
67901;DHT22;54700;51.796;10.956;2023-10-31T05:51:11;10.60;95.80
67901;DHT22;54700;51.796;10.956;2023-10-31T05:53:39;10.60;96.10
67901;DHT22;54700;51.796;10.956;2023-10-31T05:56:07;10.60;95.30
67901;DHT22;54700;51.796;10.956;2023-10-31T05:58:35;10.60;96.00
67901;DHT22;54700;51.796;10.956;2023-10-31T06:01:03;10.60;96.00
67901;DHT22;54700;51.796;10.956;2023-10-31T06:03:30;10.50;95.00
67901;DHT22;54700;51.796;10.956;2023-10-31T06:06:00;10.50;96.30
67901;DHT22;54700;51.796;10.956;2023-10-31T06:08:27;10.50;97.10
67901;DHT22;54700;51.796;10.956;2023-10-31T06:10:54;10.40;95.80
67901;DHT22;54700;51.796;10.956;2023-10-31T06:13:22;10.40;95.50
67901;DHT22;54700;51.796;10.956;2023-10-31T06:15:51;10.40;94.70
67901;DHT22;54700;51.796;10.956;2023-10-31T06:18:18;10.40;95.40
67901;DHT22;54700;51.796;10.956;2023-10-31T06:20:45;10.40;95.40
67901;DHT22;54700;51.796;10.956;2023-10-31T06:23:13;10.40;96.30
67901;DHT22;54700;51.796;10.956;2023-10-31T06:25:40;10.40;97.00
67901;DHT22;54700;51.796;10.956;2023-10-31T06:28:07;10.40;96.40
67901;DHT22;54700;51.796;10.956;2023-10-31T06:30:34;10.40;95.60
67901;DHT22;54700;51.796;10.956;2023-10-31T06:33:01;10.40;96.00
67901;DHT22;54700;51.796;10.956;2023-10-31T06:35:28;10.40;96.20
67901;DHT22;54700;51.796;10.956;2023-10-31T06:37:55;10.40;95.90
67901;DHT22;54700;51.796;10.956;2023-10-31T06:40:24;10.40;96.80
67901;DHT22;54700;51.796;10.956;2023-10-31T06:42:52;10.40;96.30
67901;DHT22;54700;51.796;10.956;2023-10-31T06:45:20;10.40;97.90
67901;DHT22;54700;51.796;10.956;2023-10-31T06:47:47;10.40;97.90
67901;DHT22;54700;51.796;10.956;2023-10-31T06:50:14;10.40;97.90
67901;DHT22;54700;51.796;10.956;2023-10-31T06:52:42;10.40;98.50
67901;DHT22;54700;51.796;10.956;2023-10-31T06:55:09;10.40;98.40
67901;DHT22;54700;51.796;10.956;2023-10-31T06:57:37;10.50;97.40
67901;DHT22;54700;51.796;10.956;2023-10-31T07:00:06;10.50;96.90
67901;DHT22;54700;51.796;10.956;2023-10-31T07:02:34;10.50;95.80
67901;DHT22;54700;51.796;10.956;2023-10-31T07:05:01;10.60;96.30
67901;DHT22;54700;51.796;10.956;2023-10-31T07:07:29;10.70;95.50
67901;DHT22;54700;51.796;10.956;2023-10-31T07:09:56;10.70;94.70
67901;DHT22;54700;51.796;10.956;2023-10-31T07:12:24;10.80;94.30
67901;DHT22;54700;51.796;10.956;2023-10-31T07:14:52;10.80;95.00
67901;DHT22;54700;51.796;10.956;2023-10-31T07:17:19;10.80;95.20
67901;DHT22;54700;51.796;10.956;2023-10-31T07:19:46;10.80;94.60
67901;DHT22;54700;51.796;10.956;2023-10-31T07:22:13;10.80;95.10
67901;DHT22;54700;51.796;10.956;2023-10-31T07:24:40;10.80;95.90
67901;DHT22;54700;51.796;10.956;2023-10-31T07:27:08;10.80;96.20
67901;DHT22;54700;51.796;10.956;2023-10-31T07:29:35;10.80;97.40
67901;DHT22;54700;51.796;10.956;2023-10-31T07:32:03;10.90;95.40
67901;DHT22;54700;51.796;10.956;2023-10-31T07:34:30;10.90;94.20
67901;DHT22;54700;51.796;10.956;2023-10-31T07:36:57;10.90;95.50
67901;DHT22;54700;51.796;10.956;2023-10-31T07:39:25;10.90;95.70
67901;DHT22;54700;51.796;10.956;2023-10-31T07:41:52;10.90;96.10
67901;DHT22;54700;51.796;10.956;2023-10-31T07:44:19;10.90;94.90
67901;DHT22;54700;51.796;10.956;2023-10-31T07:46:46;10.90;95.00
67901;DHT22;54700;51.796;10.956;2023-10-31T07:49:15;10.90;96.90
67901;DHT22;54700;51.796;10.956;2023-10-31T07:51:42;10.90;97.80
67901;DHT22;54700;51.796;10.956;2023-10-31T07:54:11;10.90;95.90
67901;DHT22;54700;51.796;10.956;2023-10-31T07:56:38;10.90;95.90
67901;DHT22;54700;51.796;10.956;2023-10-31T07:59:06;10.90;95.80
67901;DHT22;54700;51.796;10.956;2023-10-31T08:01:34;11.00;95.60
67901;DHT22;54700;51.796;10.956;2023-10-31T08:04:01;11.00;97.20
67901;DHT22;54700;51.796;10.956;2023-10-31T08:06:29;11.00;96.10
67901;DHT22;54700;51.796;10.956;2023-10-31T08:08:56;11.10;96.70
67901;DHT22;54700;51.796;10.956;2023-10-31T08:11:23;11.10;96.30
67901;DHT22;54700;51.796;10.956;2023-10-31T08:13:51;11.20;95.30
67901;DHT22;54700;51.796;10.956;2023-10-31T08:16:19;11.20;96.50
67901;DHT22;54700;51.796;10.956;2023-10-31T08:18:46;11.20;98.30
67901;DHT22;54700;51.796;10.956;2023-10-31T08:21:15;11.30;97.50
67901;DHT22;54700;51.796;10.956;2023-10-31T08:23:44;11.40;97.70
67901;DHT22;54700;51.796;10.956;2023-10-31T08:26:11;11.50;97.60
67901;DHT22;54700;51.796;10.956;2023-10-31T08:28:39;11.50;97.70
67901;DHT22;54700;51.796;10.956;2023-10-31T08:31:06;11.50;95.10
67901;DHT22;54700;51.796;10.956;2023-10-31T08:33:33;11.50;97.00
67901;DHT22;54700;51.796;10.956;2023-10-31T08:36:00;11.40;98.20
67901;DHT22;54700;51.796;10.956;2023-10-31T08:38:27;11.40;97.80
67901;DHT22;54700;51.796;10.956;2023-10-31T08:40:58;11.40;96.40
67901;DHT22;54700;51.796;10.956;2023-10-31T08:43:25;11.30;96.80
67901;DHT22;54700;51.796;10.956;2023-10-31T08:45:52;11.30;98.80
67901;DHT22;54700;51.796;10.956;2023-10-31T08:48:20;11.30;97.50
67901;DHT22;54700;51.796;10.956;2023-10-31T08:50:47;11.30;97.70
67901;DHT22;54700;51.796;10.956;2023-10-31T08:53:14;11.30;98.10
67901;DHT22;54700;51.796;10.956;2023-10-31T08:55:42;11.40;98.90
67901;DHT22;54700;51.796;10.956;2023-10-31T08:58:11;11.40;97.80
67901;DHT22;54700;51.796;10.956;2023-10-31T09:00:38;11.40;96.80
67901;DHT22;54700;51.796;10.956;2023-10-31T09:03:06;11.40;96.80
67901;DHT22;54700;51.796;10.956;2023-10-31T09:05:33;11.40;96.90
67901;DHT22;54700;51.796;10.956;2023-10-31T09:08:00;11.40;97.00
67901;DHT22;54700;51.796;10.956;2023-10-31T09:10:27;11.40;97.30
67901;DHT22;54700;51.796;10.956;2023-10-31T09:12:54;11.40;97.30
67901;DHT22;54700;51.796;10.956;2023-10-31T09:15:22;11.40;96.50
67901;DHT22;54700;51.796;10.956;2023-10-31T09:17:49;11.40;96.20
67901;DHT22;54700;51.796;10.956;2023-10-31T09:20:17;11.50;95.80
67901;DHT22;54700;51.796;10.956;2023-10-31T09:22:44;11.50;96.70
67901;DHT22;54700;51.796;10.956;2023-10-31T09:25:10;11.50;95.50
67901;DHT22;54700;51.796;10.956;2023-10-31T09:27:37;11.40;96.10
67901;DHT22;54700;51.796;10.956;2023-10-31T09:30:06;11.40;96.40
67901;DHT22;54700;51.796;10.956;2023-10-31T09:32:35;11.30;95.90
67901;DHT22;54700;51.796;10.956;2023-10-31T09:35:02;11.30;96.00
67901;DHT22;54700;51.796;10.956;2023-10-31T09:37:29;11.30;96.20
67901;DHT22;54700;51.796;10.956;2023-10-31T09:39:56;11.40;95.30
67901;DHT22;54700;51.796;10.956;2023-10-31T09:42:23;11.50;95.30
67901;DHT22;54700;51.796;10.956;2023-10-31T09:44:51;11.50;96.20
67901;DHT22;54700;51.796;10.956;2023-10-31T09:47:19;11.40;96.20
67901;DHT22;54700;51.796;10.956;2023-10-31T09:49:48;11.40;96.90
67901;DHT22;54700;51.796;10.956;2023-10-31T09:52:15;11.40;95.70
67901;DHT22;54700;51.796;10.956;2023-10-31T09:54:45;11.40;96.90
67901;DHT22;54700;51.796;10.956;2023-10-31T09:57:15;11.40;98.10
67901;DHT22;54700;51.796;10.956;2023-10-31T09:59:43;11.40;97.80
67901;DHT22;54700;51.796;10.956;2023-10-31T10:02:11;11.40;97.70
67901;DHT22;54700;51.796;10.956;2023-10-31T10:04:39;11.40;96.30
67901;DHT22;54700;51.796;10.956;2023-10-31T10:07:09;11.40;97.00
67901;DHT22;54700;51.796;10.956;2023-10-31T10:09:41;11.40;96.40
67901;DHT22;54700;51.796;10.956;2023-10-31T10:12:10;11.40;95.70
67901;DHT22;54700;51.796;10.956;2023-10-31T10:14:39;11.40;96.40
67901;DHT22;54700;51.796;10.956;2023-10-31T10:17:13;11.50;96.50
67901;DHT22;54700;51.796;10.956;2023-10-31T10:19:40;11.50;94.30
67901;DHT22;54700;51.796;10.956;2023-10-31T10:22:09;11.60;93.70
67901;DHT22;54700;51.796;10.956;2023-10-31T10:24:39;11.70;94.40
67901;DHT22;54700;51.796;10.956;2023-10-31T10:27:06;11.80;93.40
67901;DHT22;54700;51.796;10.956;2023-10-31T10:29:33;11.90;93.00
67901;DHT22;54700;51.796;10.956;2023-10-31T10:32:01;11.90;92.40
67901;DHT22;54700;51.796;10.956;2023-10-31T10:34:31;12.00;92.70
67901;DHT22;54700;51.796;10.956;2023-10-31T10:36:58;12.20;92.40
67901;DHT22;54700;51.796;10.956;2023-10-31T10:39:26;12.20;92.10
67901;DHT22;54700;51.796;10.956;2023-10-31T10:41:56;12.20;92.60
67901;DHT22;54700;51.796;10.956;2023-10-31T10:44:31;12.30;91.10
67901;DHT22;54700;51.796;10.956;2023-10-31T10:47:01;12.30;93.10
67901;DHT22;54700;51.796;10.956;2023-10-31T10:49:31;12.30;91.10
67901;DHT22;54700;51.796;10.956;2023-10-31T10:52:01;12.30;91.40
67901;DHT22;54700;51.796;10.956;2023-10-31T10:54:40;12.20;90.30
67901;DHT22;54700;51.796;10.956;2023-10-31T10:57:14;12.20;92.60
67901;DHT22;54700;51.796;10.956;2023-10-31T10:59:42;12.20;91.20
67901;DHT22;54700;51.796;10.956;2023-10-31T11:02:17;12.10;89.10
67901;DHT22;54700;51.796;10.956;2023-10-31T11:04:45;12.10;89.90
67901;DHT22;54700;51.796;10.956;2023-10-31T11:07:16;12.20;92.00
67901;DHT22;54700;51.796;10.956;2023-10-31T11:09:47;12.40;89.50
67901;DHT22;54700;51.796;10.956;2023-10-31T11:12:14;12.50;90.80
67901;DHT22;54700;51.796;10.956;2023-10-31T11:14:43;12.60;86.50
67901;DHT22;54700;51.796;10.956;2023-10-31T11:17:11;12.60;86.10
67901;DHT22;54700;51.796;10.956;2023-10-31T11:19:48;12.50;83.90
67901;DHT22;54700;51.796;10.956;2023-10-31T11:22:17;12.50;86.70
67901;DHT22;54700;51.796;10.956;2023-10-31T11:24:44;12.40;83.70
67901;DHT22;54700;51.796;10.956;2023-10-31T11:27:12;12.40;85.30
67901;DHT22;54700;51.796;10.956;2023-10-31T11:29:39;12.30;86.10
67901;DHT22;54700;51.796;10.956;2023-10-31T11:32:08;12.20;86.60
67901;DHT22;54700;51.796;10.956;2023-10-31T11:34:36;12.10;85.90
67901;DHT22;54700;51.796;10.956;2023-10-31T11:37:24;12.00;87.20
67901;DHT22;54700;51.796;10.956;2023-10-31T11:42:43;11.90;89.60
67901;DHT22;54700;51.796;10.956;2023-10-31T11:45:13;11.70;88.60
67901;DHT22;54700;51.796;10.956;2023-10-31T11:47:52;11.70;89.20
67901;DHT22;54700;51.796;10.956;2023-10-31T11:50:19;11.60;89.70
67901;DHT22;54700;51.796;10.956;2023-10-31T11:52:57;11.60;90.20
67901;DHT22;54700;51.796;10.956;2023-10-31T11:55:25;11.70;90.00
67901;DHT22;54700;51.796;10.956;2023-10-31T11:57:54;11.60;88.30
67901;DHT22;54700;51.796;10.956;2023-10-31T12:00:22;11.60;88.30
67901;DHT22;54700;51.796;10.956;2023-10-31T12:02:59;11.70;88.90
67901;DHT22;54700;51.796;10.956;2023-10-31T12:05:26;11.70;88.80
67901;DHT22;54700;51.796;10.956;2023-10-31T12:07:55;11.80;88.70
67901;DHT22;54700;51.796;10.956;2023-10-31T12:10:22;11.90;87.60
67901;DHT22;54700;51.796;10.956;2023-10-31T12:12:51;12.00;86.90
67901;DHT22;54700;51.796;10.956;2023-10-31T12:15:20;12.00;85.80
67901;DHT22;54700;51.796;10.956;2023-10-31T12:17:47;12.20;88.10
67901;DHT22;54700;51.796;10.956;2023-10-31T12:20:14;12.20;86.00
67901;DHT22;54700;51.796;10.956;2023-10-31T12:22:42;12.30;84.80
67901;DHT22;54700;51.796;10.956;2023-10-31T12:25:10;12.30;85.10
67901;DHT22;54700;51.796;10.956;2023-10-31T12:27:47;12.30;85.90
67901;DHT22;54700;51.796;10.956;2023-10-31T12:30:36;12.30;85.10
67901;DHT22;54700;51.796;10.956;2023-10-31T12:33:12;12.30;85.40
67901;DHT22;54700;51.796;10.956;2023-10-31T12:35:39;12.10;85.70
67901;DHT22;54700;51.796;10.956;2023-10-31T12:38:06;12.00;87.00
67901;DHT22;54700;51.796;10.956;2023-10-31T12:40:36;12.00;87.30
67901;DHT22;54700;51.796;10.956;2023-10-31T12:43:04;11.90;87.40
67901;DHT22;54700;51.796;10.956;2023-10-31T12:45:32;12.00;88.60
67901;DHT22;54700;51.796;10.956;2023-10-31T12:48:01;12.10;87.80
67901;DHT22;54700;51.796;10.956;2023-10-31T12:50:29;12.20;86.70
67901;DHT22;54700;51.796;10.956;2023-10-31T12:52:57;12.30;86.10
67901;DHT22;54700;51.796;10.956;2023-10-31T12:55:25;12.30;85.80
67901;DHT22;54700;51.796;10.956;2023-10-31T12:57:54;12.30;85.60
67901;DHT22;54700;51.796;10.956;2023-10-31T13:00:21;12.30;85.80
67901;DHT22;54700;51.796;10.956;2023-10-31T13:02:59;12.20;85.00
67901;DHT22;54700;51.796;10.956;2023-10-31T13:05:28;12.20;85.10
67901;DHT22;54700;51.796;10.956;2023-10-31T13:07:56;12.20;86.20
67901;DHT22;54700;51.796;10.956;2023-10-31T13:10:26;12.20;85.60
67901;DHT22;54700;51.796;10.956;2023-10-31T13:12:54;12.30;85.10
67901;DHT22;54700;51.796;10.956;2023-10-31T13:15:23;12.30;85.10
67901;DHT22;54700;51.796;10.956;2023-10-31T13:17:51;12.30;85.50
67901;DHT22;54700;51.796;10.956;2023-10-31T13:20:20;12.30;84.70
67901;DHT22;54700;51.796;10.956;2023-10-31T13:22:48;12.30;85.30
67901;DHT22;54700;51.796;10.956;2023-10-31T13:25:15;12.30;85.60
67901;DHT22;54700;51.796;10.956;2023-10-31T13:27:43;12.30;86.60
67901;DHT22;54700;51.796;10.956;2023-10-31T13:30:16;12.30;86.50
67901;DHT22;54700;51.796;10.956;2023-10-31T13:32:43;12.30;84.80
67901;DHT22;54700;51.796;10.956;2023-10-31T13:35:11;12.30;86.80
67901;DHT22;54700;51.796;10.956;2023-10-31T13:37:42;12.30;87.20
67901;DHT22;54700;51.796;10.956;2023-10-31T13:40:09;12.30;87.80
67901;DHT22;54700;51.796;10.956;2023-10-31T13:42:36;12.30;86.10
67901;DHT22;54700;51.796;10.956;2023-10-31T13:45:03;12.30;84.70
67901;DHT22;54700;51.796;10.956;2023-10-31T13:47:31;12.30;84.50
67901;DHT22;54700;51.796;10.956;2023-10-31T13:49:58;12.30;84.90
67901;DHT22;54700;51.796;10.956;2023-10-31T13:52:25;12.30;83.30
67901;DHT22;54700;51.796;10.956;2023-10-31T13:54:56;12.30;83.50
67901;DHT22;54700;51.796;10.956;2023-10-31T13:57:23;12.30;86.50
67901;DHT22;54700;51.796;10.956;2023-10-31T13:59:50;12.30;84.80
67901;DHT22;54700;51.796;10.956;2023-10-31T14:02:17;12.30;83.70
67901;DHT22;54700;51.796;10.956;2023-10-31T14:04:44;12.30;84.10
67901;DHT22;54700;51.796;10.956;2023-10-31T14:07:12;12.30;84.10
67901;DHT22;54700;51.796;10.956;2023-10-31T14:09:47;12.30;84.80
67901;DHT22;54700;51.796;10.956;2023-10-31T14:12:16;12.30;85.40
67901;DHT22;54700;51.796;10.956;2023-10-31T14:14:43;12.30;85.30
67901;DHT22;54700;51.796;10.956;2023-10-31T14:17:13;12.20;84.80
67901;DHT22;54700;51.796;10.956;2023-10-31T14:19:40;12.20;84.30
67901;DHT22;54700;51.796;10.956;2023-10-31T14:22:07;12.10;84.50
67901;DHT22;54700;51.796;10.956;2023-10-31T14:24:34;12.00;85.30
67901;DHT22;54700;51.796;10.956;2023-10-31T14:27:01;12.00;84.60
67901;DHT22;54700;51.796;10.956;2023-10-31T14:29:29;11.90;84.90
67901;DHT22;54700;51.796;10.956;2023-10-31T14:31:56;11.90;85.00
67901;DHT22;54700;51.796;10.956;2023-10-31T14:34:26;11.80;85.10
67901;DHT22;54700;51.796;10.956;2023-10-31T14:36:56;11.80;85.80
67901;DHT22;54700;51.796;10.956;2023-10-31T14:39:23;11.70;86.30
67901;DHT22;54700;51.796;10.956;2023-10-31T14:41:50;11.70;86.90
67901;DHT22;54700;51.796;10.956;2023-10-31T14:44:17;11.70;86.80
67901;DHT22;54700;51.796;10.956;2023-10-31T14:46:45;11.70;87.50
67901;DHT22;54700;51.796;10.956;2023-10-31T14:49:12;11.70;87.80
67901;DHT22;54700;51.796;10.956;2023-10-31T14:51:39;11.60;87.60
67901;DHT22;54700;51.796;10.956;2023-10-31T14:54:07;11.60;87.70
67901;DHT22;54700;51.796;10.956;2023-10-31T14:56:34;11.60;87.50
67901;DHT22;54700;51.796;10.956;2023-10-31T14:59:02;11.60;87.30
67901;DHT22;54700;51.796;10.956;2023-10-31T15:01:29;11.60;87.70
67901;DHT22;54700;51.796;10.956;2023-10-31T15:03:58;11.60;87.70
67901;DHT22;54700;51.796;10.956;2023-10-31T15:06:25;11.60;88.10
67901;DHT22;54700;51.796;10.956;2023-10-31T15:08:51;11.50;87.40
67901;DHT22;54700;51.796;10.956;2023-10-31T15:11:18;11.50;87.60
67901;DHT22;54700;51.796;10.956;2023-10-31T15:13:45;11.60;87.20
67901;DHT22;54700;51.796;10.956;2023-10-31T15:16:12;11.50;86.10
67901;DHT22;54700;51.796;10.956;2023-10-31T15:18:39;11.50;85.50
67901;DHT22;54700;51.796;10.956;2023-10-31T15:21:07;11.50;86.30
67901;DHT22;54700;51.796;10.956;2023-10-31T15:23:34;11.50;85.70